Time;durP1;ratioP1;P1;durP2;ratioP2;P2;SDS_P1;SDS_P2;PMS_P1;PMS_P2;Temp;Humidity;BMP_temperature;BMP_pressure;BME280_temperature;BME280_humidity;BME280_pressure;Samples;Min_cycle;Max_cycle;Signal;HPM_P1;HPM_P2
2022/10/31 00:00:56;;;;;;;13.23;5.38;;;11.10;99.90;;;;;;5092528;28;20647;-52
2022/10/31 00:03:23;;;;;;;;;;;11.10;99.90;;;;;;5084649;28;20110;-52
2022/10/31 00:05:50;;;;;;;17.23;5.53;;;11.00;99.90;;;;;;5091985;28;19970;-56
2022/10/31 00:08:17;;;;;;;10.55;4.63;;;11.00;99.90;;;;;;5092302;28;20086;-56
2022/10/31 00:10:45;;;;;;;14.80;5.13;;;11.00;99.90;;;;;;5088528;28;20048;-51
2022/10/31 00:13:13;;;;;;;15.75;5.07;;;11.00;99.90;;;;;;5089901;28;20080;-53
2022/10/31 00:15:41;;;;;;;16.73;5.13;;;11.00;99.90;;;;;;5092270;28;20380;-53
2022/10/31 00:18:09;;;;;;;14.27;6.40;;;11.00;99.90;;;;;;5092318;28;20681;-53
2022/10/31 00:20:37;;;;;;;14.57;4.60;;;11.00;99.90;;;;;;5087458;28;20048;-54
2022/10/31 00:23:05;;;;;;;15.98;4.57;;;10.90;99.90;;;;;;5091931;28;20032;-53
2022/10/31 00:25:37;;;;;;;13.82;4.65;;;10.90;99.90;;;;;;5091919;28;20068;-54
2022/10/31 00:28:05;;;;;;;17.70;4.78;;;10.90;99.90;;;;;;5092011;28;20040;-55
2022/10/31 00:30:33;;;;;;;9.23;3.90;;;10.90;99.90;;;;;;5083768;28;20542;-55
2022/10/31 00:33:02;;;;;;;17.00;4.70;;;10.90;99.90;;;;;;5091870;28;20407;-52
2022/10/31 00:35:31;;;;;;;12.15;4.20;;;10.80;99.90;;;;;;5091375;28;20047;-52
2022/10/31 00:37:58;;;;;;;10.50;3.50;;;10.70;99.90;;;;;;5087931;28;20040;-54
2022/10/31 00:40:25;;;;;;;9.35;3.58;;;10.60;99.90;;;;;;5072889;28;20062;-51
2022/10/31 00:42:52;;;;;;;13.70;3.63;;;10.50;99.90;;;;;;5073792;28;20032;-54
2022/10/31 00:45:19;;;;;;;9.73;3.38;;;10.40;99.90;;;;;;5072993;28;20048;-52
2022/10/31 00:47:46;;;;;;;15.68;3.75;;;10.30;99.90;;;;;;5073123;28;20130;-51
2022/10/31 00:50:13;;;;;;;8.63;3.28;;;10.30;99.90;;;;;;5091291;28;20040;-54
2022/10/31 00:52:40;;;;;;;10.52;2.70;;;10.30;99.90;;;;;;5073152;28;20048;-54
2022/10/31 00:55:07;;;;;;;11.85;3.42;;;10.20;99.90;;;;;;5091261;28;20110;-53
2022/10/31 00:57:34;;;;;;;12.23;3.05;;;10.10;99.90;;;;;;5072522;28;20051;-53
2022/10/31 01:00:03;;;;;;;11.35;3.67;;;10.10;99.90;;;;;;5072443;28;20075;-52
2022/10/31 01:02:30;;;;;;;11.63;3.45;;;10.00;99.90;;;;;;5073041;28;20036;-52
2022/10/31 01:04:56;;;;;;;6.95;3.50;;;10.00;99.90;;;;;;5072784;28;20094;-55
2022/10/31 01:07:23;;;;;;;9.52;2.70;;;10.00;99.90;;;;;;5073020;28;20070;-52
2022/10/31 01:09:50;;;;;;;8.00;3.22;;;9.90;99.90;;;;;;5071807;28;20093;-54
2022/10/31 01:12:18;;;;;;;10.90;3.10;;;9.70;99.90;;;;;;5072118;28;20040;-54
2022/10/31 01:14:45;;;;;;;8.95;3.35;;;9.60;99.90;;;;;;5072921;28;20519;-56
2022/10/31 01:17:13;;;;;;;10.43;3.55;;;9.60;99.90;;;;;;5071900;28;20047;-52
2022/10/31 01:19:39;;;;;;;12.98;4.75;;;9.60;99.90;;;;;;5070341;28;20102;-54
2022/10/31 01:22:06;;;;;;;8.45;3.80;;;9.50;99.90;;;;;;5089243;28;20040;-53
2022/10/31 01:24:33;;;;;;;10.73;3.95;;;9.50;99.90;;;;;;5072476;28;20044;-53
2022/10/31 01:27:01;;;;;;;14.35;5.43;;;9.50;99.90;;;;;;5073125;28;20032;-50
2022/10/31 01:29:32;;;;;;;9.70;3.92;;;9.50;99.90;;;;;;5085950;28;20028;-52
2022/10/31 01:31:59;;;;;;;12.35;5.07;;;9.50;99.90;;;;;;5090850;28;20101;-50
2022/10/31 01:34:25;;;;;;;9.68;4.30;;;9.60;99.90;;;;;;5072339;28;20511;-53
2022/10/31 01:36:52;;;;;;;11.75;4.50;;;9.50;99.90;;;;;;5071734;28;20068;-54
2022/10/31 01:39:20;;;;;;;9.77;4.25;;;9.60;99.90;;;;;;5090694;28;20036;-52
2022/10/31 01:41:50;;;;;;;9.07;3.40;;;9.70;99.90;;;;;;5072591;28;20547;-51
2022/10/31 01:44:17;;;;;;;10.98;3.50;;;9.60;99.90;;;;;;5090420;28;20044;-54
2022/10/31 01:46:50;;;;;;;8.35;3.80;;;9.60;99.90;;;;;;5060967;28;20040;-53
2022/10/31 01:49:25;;;;;;;12.20;3.28;;;9.60;99.90;;;;;;5090675;28;20063;-51
2022/10/31 01:51:58;;;;;;;8.35;3.10;;;9.60;99.90;;;;;;5090695;28;20385;-52
2022/10/31 01:54:31;;;;;;;11.52;3.83;;;9.50;99.90;;;;;;5070417;28;20108;-51
2022/10/31 01:56:59;;;;;;;10.35;3.30;;;9.50;99.90;;;;;;5072651;28;20047;-54
2022/10/31 01:59:30;;;;;;;7.38;3.33;;;9.40;99.90;;;;;;5085417;28;20036;-55
2022/10/31 02:01:56;;;;;;;7.75;2.90;;;9.40;99.90;;;;;;5064081;28;20063;-54
2022/10/31 02:04:25;;;;;;;11.65;3.58;;;9.40;99.90;;;;;;5092470;28;20488;-55
2022/10/31 02:07:00;;;;;;;12.52;3.00;;;9.30;99.90;;;;;;5093788;28;20040;-55
2022/10/31 02:09:30;;;;;;;9.55;3.53;;;9.30;99.90;;;;;;5076575;28;20079;-53
2022/10/31 02:11:59;;;;;;;14.77;4.85;;;9.30;99.90;;;;;;5094851;28;20036;-51
2022/10/31 02:14:30;;;;;;;10.35;3.83;;;9.30;99.90;;;;;;5075049;28;20126;-53
2022/10/31 02:16:57;;;;;;;7.55;3.40;;;9.20;99.90;;;;;;5094313;28;20090;-52
2022/10/31 02:19:56;;;;;;;;;;;9.30;99.90;;;;;;5072594;28;20044;-51
2022/10/31 02:22:35;;;;;;;6.82;2.40;;;9.30;99.90;;;;;;5030215;28;19946;-53
2022/10/31 02:25:05;;;;;;;9.38;2.50;;;9.20;99.90;;;;;;5092008;28;20523;-51
2022/10/31 02:27:39;;;;;;;9.60;2.67;;;9.00;99.90;;;;;;5096078;28;20138;-52
2022/10/31 02:30:15;;;;;;;13.57;2.58;;;8.90;99.90;;;;;;5088035;28;20176;-50
2022/10/31 02:33:05;;;;;;;4.65;2.10;;;8.80;99.90;;;;;;5087823;28;20594;-51
2022/10/31 02:36:03;;;;;;;9.80;3.35;;;8.80;99.90;;;;;;5075813;28;20040;-51
2022/10/31 02:39:00;;;;;;;11.47;2.77;;;8.80;99.90;;;;;;5074117;28;20045;-54
2022/10/31 02:41:54;;;;;;;10.13;2.40;;;8.80;99.90;;;;;;5070183;28;20040;-51
2022/10/31 02:44:30;;;;;;;7.78;2.58;;;8.80;99.90;;;;;;5093619;28;20036;-51
2022/10/31 02:47:06;;;;;;;8.33;3.37;;;8.90;99.90;;;;;;5075902;28;20419;-53
2022/10/31 02:49:48;;;;;;;8.68;2.67;;;8.90;99.90;;;;;;5075030;28;20130;-52
2022/10/31 02:52:24;;;;;;;9.77;3.05;;;8.90;99.90;;;;;;5076057;28;20047;-51
2022/10/31 02:54:51;;;;;;;15.27;3.47;;;8.90;99.90;;;;;;5075700;28;20040;-52
2022/10/31 02:57:39;;;;;;;7.05;2.88;;;8.90;99.90;;;;;;5094210;28;20044;-55
2022/10/31 03:00:08;;;;;;;8.68;2.88;;;8.90;99.90;;;;;;5072249;28;20040;-53
2022/10/31 03:02:59;;;;;;;9.93;2.90;;;8.90;99.90;;;;;;5074231;28;20044;-55
2022/10/31 03:05:55;;;;;;;9.23;3.17;;;8.90;99.90;;;;;;5069570;28;20079;-53
2022/10/31 03:08:32;;;;;;;8.85;2.63;;;8.80;99.90;;;;;;5086109;28;20033;-50
2022/10/31 03:11:04;;;;;;;14.15;2.60;;;8.80;99.90;;;;;;5074673;28;20558;-53
2022/10/31 03:13:56;;;;;;;9.48;2.47;;;8.60;99.90;;;;;;5072950;28;20064;-52
2022/10/31 03:16:46;;;;;;;6.78;2.47;;;8.60;99.90;;;;;;5069840;28;20040;-52
2022/10/31 03:19:38;;;;;;;7.97;2.38;;;8.60;99.90;;;;;;5072753;28;20090;-51
2022/10/31 03:22:23;;;;;;;10.55;2.53;;;8.50;99.90;;;;;;5072529;28;20047;-51
2022/10/31 03:24:53;;;;;;;13.23;2.55;;;8.50;99.90;;;;;;5071637;28;20111;-51
2022/10/31 03:27:34;;;;;;;7.35;2.30;;;8.40;99.90;;;;;;5065587;28;20511;-54
2022/10/31 03:30:05;;;;;;;11.70;2.65;;;8.40;99.90;;;;;;5065182;22;20393;-52
2022/10/31 03:32:49;;;;;;;11.13;2.65;;;8.30;99.90;;;;;;5053163;28;20159;-54
2022/10/31 03:35:19;;;;;;;12.35;2.60;;;8.30;99.90;;;;;;5048877;28;20045;-50
2022/10/31 03:37:48;;;;;;;5.55;2.50;;;8.40;99.90;;;;;;5075233;28;20036;-51
2022/10/31 03:40:18;;;;;;;6.00;3.17;;;8.40;99.90;;;;;;5051119;28;20052;-51
2022/10/31 03:42:56;;;;;;;11.65;3.10;;;8.40;99.90;;;;;;5075060;28;20028;-50
2022/10/31 03:45:30;;;;;;;9.25;3.22;;;8.30;99.90;;;;;;5075227;28;20048;-50
2022/10/31 03:47:59;;;;;;;9.32;2.20;;;8.40;99.90;;;;;;5075306;28;20054;-50
2022/10/31 03:50:34;;;;;;;9.50;2.35;;;8.40;99.90;;;;;;5065182;28;20076;-50
2022/10/31 03:53:07;;;;;;;5.20;2.25;;;8.40;99.90;;;;;;5046735;28;20075;-52
2022/10/31 03:55:48;;;;;;;9.45;2.53;;;8.40;99.90;;;;;;5055163;28;20393;-52
2022/10/31 03:58:23;;;;;;;8.35;2.22;;;8.40;99.90;;;;;;5055151;28;20552;-55
2022/10/31 04:00:55;;;;;;;9.80;2.25;;;8.40;99.90;;;;;;5048305;28;20045;-53
2022/10/31 04:03:29;;;;;;;10.00;2.28;;;8.40;99.90;;;;;;5053625;28;20136;-51
2022/10/31 04:06:07;;;;;;;10.85;3.33;;;8.40;99.90;;;;;;5060976;28;20040;-54
2022/10/31 04:08:41;;;;;;;8.05;2.72;;;8.40;99.90;;;;;;5058812;28;20065;-51
2022/10/31 04:11:15;;;;;;;11.25;3.20;;;8.50;99.90;;;;;;5074331;28;20036;-50
2022/10/31 04:13:46;;;;;;;10.55;2.83;;;8.40;99.90;;;;;;5073350;28;20581;-54
2022/10/31 04:16:21;;;;;;;9.77;2.95;;;8.40;99.90;;;;;;5070239;28;20048;-51
2022/10/31 04:18:48;;;;;;;14.77;3.70;;;8.40;99.90;;;;;;5067405;28;20382;-51
2022/10/31 04:21:16;;;;;;;12.40;2.80;;;8.40;99.90;;;;;;5074455;28;20044;-51
2022/10/31 04:23:43;;;;;;;;;;;8.40;99.90;;;;;;5067322;28;20049;-51
2022/10/31 04:26:17;;;;;;;5.40;1.98;;;8.30;99.90;;;;;;5068911;28;20482;-51
2022/10/31 04:28:45;;;;;;;8.43;2.65;;;8.20;99.90;;;;;;5091109;28;20038;-53
2022/10/31 04:31:13;;;;;;;8.30;2.83;;;8.10;99.90;;;;;;5057317;28;20037;-51
2022/10/31 04:33:42;;;;;;;10.18;2.45;;;8.10;99.90;;;;;;5083880;28;20550;-51
2022/10/31 04:36:09;;;;;;;10.15;3.10;;;8.10;99.90;;;;;;5079476;28;20037;-53
2022/10/31 04:38:36;;;;;;;9.07;3.25;;;8.10;99.90;;;;;;5053213;28;20707;-54
2022/10/31 04:41:10;;;;;;;11.85;3.00;;;8.20;99.90;;;;;;5056779;28;20047;-50
2022/10/31 04:43:57;;;;;;;16.85;5.15;;;8.20;99.90;;;;;;5068043;28;20489;-52
2022/10/31 04:46:26;;;;;;;16.27;5.47;;;8.20;99.90;;;;;;5053589;28;20044;-53
2022/10/31 04:48:54;;;;;;;21.08;6.30;;;8.20;99.90;;;;;;5051378;28;20044;-52
2022/10/31 04:51:21;;;;;;;17.10;4.25;;;8.20;99.90;;;;;;5071105;28;20055;-54
2022/10/31 04:53:48;;;;;;;8.13;3.45;;;8.10;99.90;;;;;;5091355;28;20097;-52
2022/10/31 04:56:26;;;;;;;11.05;3.78;;;8.10;99.90;;;;;;5080268;28;20051;-51
2022/10/31 04:59:04;;;;;;;12.02;4.22;;;8.10;99.90;;;;;;5041863;28;20056;-50
2022/10/31 05:01:43;;;;;;;8.90;3.30;;;8.10;99.90;;;;;;5047360;28;20044;-52
2022/10/31 05:04:10;;;;;;;13.85;3.30;;;8.10;99.90;;;;;;5053355;28;20053;-51
2022/10/31 05:06:37;;;;;;;14.02;4.07;;;8.10;99.90;;;;;;5061877;28;20032;-51
2022/10/31 05:09:04;;;;;;;13.55;4.22;;;8.00;99.90;;;;;;5058999;28;20040;-50
2022/10/31 05:11:31;;;;;;;11.45;4.22;;;8.00;99.90;;;;;;5060707;28;20036;-53
2022/10/31 05:14:08;;;;;;;11.93;3.38;;;7.90;99.90;;;;;;5059111;28;20032;-53
2022/10/31 05:16:58;;;;;;;13.68;3.90;;;7.90;99.90;;;;;;5060970;28;20502;-51
2022/10/31 05:19:45;;;;;;;13.15;2.97;;;7.80;99.90;;;;;;5013174;28;20052;-50
2022/10/31 05:22:30;;;;;;;9.68;3.33;;;7.90;99.90;;;;;;5091620;28;20051;-51
2022/10/31 05:24:57;;;;;;;13.57;2.70;;;7.90;99.90;;;;;;5078912;28;20043;-53
2022/10/31 05:27:24;;;;;;;12.10;3.20;;;7.80;99.90;;;;;;5071948;28;20397;-51
2022/10/31 05:29:51;;;;;;;10.55;3.40;;;7.80;99.90;;;;;;5089847;28;20179;-50
2022/10/31 05:32:17;;;;;;;11.25;4.03;;;7.80;99.90;;;;;;5072722;28;20134;-51
2022/10/31 05:35:20;;;;;;;10.15;4.75;;;7.80;99.90;;;;;;5018510;28;20057;-53
2022/10/31 05:38:11;;;;;;;10.20;4.28;;;7.80;99.90;;;;;;5035262;28;20052;-51
2022/10/31 05:40:38;;;;;;;10.30;4.47;;;7.80;99.90;;;;;;5034314;28;20110;-52
2022/10/31 05:43:05;;;;;;;20.17;3.45;;;7.90;99.90;;;;;;5039241;28;20067;-51
2022/10/31 05:45:31;;;;;;;20.05;3.72;;;7.90;99.90;;;;;;5051794;28;20386;-52
2022/10/31 05:48:03;;;;;;;12.38;3.45;;;7.80;99.90;;;;;;5044938;28;20467;-50
2022/10/31 05:51:00;;;;;;;8.82;3.13;;;7.70;99.90;;;;;;4998901;28;20053;-54
2022/10/31 05:53:26;;;;;;;9.90;2.90;;;7.50;99.90;;;;;;5090267;28;20393;-52
2022/10/31 05:55:54;;;;;;;10.50;3.00;;;7.50;99.90;;;;;;5068430;28;20043;-52
2022/10/31 05:58:21;;;;;;;12.32;2.97;;;7.50;99.90;;;;;;5070450;28;20044;-52
2022/10/31 06:00:57;;;;;;;6.30;2.80;;;7.40;99.90;;;;;;5062865;28;20052;-53
2022/10/31 06:03:24;;;;;;;13.05;4.20;;;7.40;99.90;;;;;;5071510;28;20089;-55
2022/10/31 06:05:57;;;;;;;10.90;3.67;;;7.40;99.90;;;;;;5072360;28;20131;-51
2022/10/31 06:08:29;;;;;;;13.40;3.75;;;7.50;99.90;;;;;;5065404;28;20456;-51
2022/10/31 06:11:00;;;;;;;8.38;3.53;;;7.50;99.90;;;;;;5052193;28;20052;-51
2022/10/31 06:13:49;;;;;;;10.93;3.47;;;7.60;99.90;;;;;;5072834;28;20364;-50
2022/10/31 06:16:22;;;;;;;15.30;4.28;;;7.70;99.90;;;;;;5044041;28;20400;-52
2022/10/31 06:18:50;;;;;;;14.77;4.93;;;7.80;99.90;;;;;;5066161;28;20051;-51
2022/10/31 06:21:17;;;;;;;18.77;4.78;;;7.90;99.90;;;;;;5070820;28;20048;-52
2022/10/31 06:23:47;;;;;;;18.33;4.68;;;8.00;99.90;;;;;;5064795;28;20073;-52
2022/10/31 06:26:38;;;;;;;18.52;5.03;;;8.10;99.90;;;;;;5071752;28;20518;-51
2022/10/31 06:29:04;;;;;;;13.27;4.47;;;8.10;99.90;;;;;;5068092;28;20036;-51
2022/10/31 06:31:56;;;;;;;14.27;4.88;;;8.20;99.90;;;;;;5068965;28;20039;-51
2022/10/31 06:34:22;;;;;;;16.42;5.03;;;8.20;99.90;;;;;;5072212;28;20066;-53
2022/10/31 06:36:49;;;;;;;10.85;4.40;;;8.30;99.90;;;;;;5071655;28;20488;-52
2022/10/31 06:39:19;;;;;;;11.32;3.60;;;8.40;99.90;;;;;;5062427;28;20068;-51
2022/10/31 06:41:49;;;;;;;11.75;3.40;;;8.40;99.90;;;;;;5056117;28;20507;-51
2022/10/31 06:44:19;;;;;;;7.35;3.20;;;8.30;99.90;;;;;;5043094;28;20128;-53
2022/10/31 06:46:58;;;;;;;11.75;4.93;;;8.20;99.90;;;;;;5062570;28;20053;-51
2022/10/31 06:49:49;;;;;;;9.07;4.53;;;8.00;99.90;;;;;;5044314;28;20090;-51
2022/10/31 06:52:20;;;;;;;13.77;4.78;;;8.00;99.90;;;;;;5049850;28;20041;-51
2022/10/31 06:54:46;;;;;;;12.02;4.82;;;8.00;99.90;;;;;;5075853;28;20443;-52
2022/10/31 06:57:14;;;;;;;;;;;8.10;99.90;;;;;;5071898;28;20048;-54
2022/10/31 06:59:40;;;;;;;20.63;5.70;;;8.20;99.90;;;;;;5076097;28;19942;-51
2022/10/31 07:02:26;;;;;;;14.40;5.30;;;8.30;99.90;;;;;;5093651;28;20586;-54
2022/10/31 07:04:56;;;;;;;16.17;5.90;;;8.40;99.90;;;;;;5075587;28;20036;-55
2022/10/31 07:07:23;;;;;;;16.35;5.40;;;8.40;99.90;;;;;;5059129;28;20471;-53
2022/10/31 07:09:50;;;;;;;17.33;5.80;;;8.50;99.90;;;;;;5045820;28;20040;-50
2022/10/31 07:12:21;;;;;;;17.75;5.70;;;8.50;99.90;;;;;;5045561;28;20045;-51
2022/10/31 07:14:55;;;;;;;14.02;5.53;;;8.60;99.90;;;;;;5035179;28;20563;-53
2022/10/31 07:17:24;;;;;;;12.55;5.03;;;8.60;99.90;;;;;;5058812;28;20037;-52
2022/10/31 07:19:57;;;;;;;12.40;5.45;;;8.60;99.90;;;;;;5056495;28;20040;-52
2022/10/31 07:22:24;;;;;;;13.50;5.60;;;8.70;99.90;;;;;;5044647;28;20324;-51
2022/10/31 07:24:51;;;;;;;18.15;5.30;;;8.70;99.90;;;;;;5034191;28;20128;-53
2022/10/31 07:27:41;;;;;;;12.80;5.00;;;8.70;99.90;;;;;;5046495;28;20052;-53
2022/10/31 07:30:12;;;;;;;16.92;5.78;;;8.80;99.90;;;;;;5037687;28;20493;-53
2022/10/31 07:32:47;;;;;;;18.08;5.60;;;9.00;99.90;;;;;;5023758;28;20055;-53
2022/10/31 07:35:18;;;;;;;13.38;5.22;;;9.20;99.90;;;;;;5061253;28;20053;-53
2022/10/31 07:37:47;;;;;;;17.55;5.20;;;9.40;99.90;;;;;;5073439;28;20492;-53
2022/10/31 07:40:16;;;;;;;11.70;4.72;;;9.60;99.90;;;;;;5072398;28;20051;-53
2022/10/31 07:42:47;;;;;;;14.00;5.10;;;9.90;99.90;;;;;;5068256;28;20071;-54
2022/10/31 07:45:33;;;;;;;13.07;5.18;;;10.10;99.90;;;;;;5086929;28;20076;-53
2022/10/31 07:48:32;;;;;;;11.90;4.88;;;10.20;99.90;;;;;;5079700;28;20107;-51
2022/10/31 07:51:19;;;;;;;17.75;5.55;;;10.20;99.90;;;;;;5090171;28;20127;-54
2022/10/31 07:54:15;;;;;;;18.77;5.00;;;10.20;99.90;;;;;;5078438;28;20067;-52
2022/10/31 07:56:42;;;;;;;16.20;4.93;;;10.30;99.90;;;;;;5092789;28;20489;-53
2022/10/31 07:59:09;;;;;;;11.43;4.35;;;10.30;99.90;;;;;;5065373;28;20086;-50
2022/10/31 08:01:35;;;;;;;10.65;5.15;;;10.40;99.90;;;;;;5073742;28;20052;-50
2022/10/31 08:04:22;;;;;;;17.10;5.20;;;10.50;99.90;;;;;;5091648;28;20048;-51
2022/10/31 08:07:07;;;;;;;10.63;3.95;;;10.60;99.90;;;;;;5067363;28;20075;-53
2022/10/31 08:09:36;;;;;;;11.00;4.00;;;10.70;99.90;;;;;;5074399;28;20051;-52
2022/10/31 08:12:14;;;;;;;14.05;3.80;;;10.80;99.90;;;;;;5052415;28;20086;-54
2022/10/31 08:14:41;;;;;;;12.02;4.10;;;11.10;99.90;;;;;;5074379;28;20416;-53
2022/10/31 08:17:08;;;;;;;12.70;4.80;;;11.20;99.90;;;;;;5064184;28;20072;-49
2022/10/31 08:19:44;;;;;;;10.05;4.20;;;11.30;99.90;;;;;;5074269;28;20047;-55
2022/10/31 08:22:13;;;;;;;14.10;4.72;;;11.50;99.90;;;;;;5072938;28;20047;-53
2022/10/31 08:24:40;;;;;;;13.02;4.63;;;11.70;99.90;;;;;;5074227;28;20454;-54
2022/10/31 08:27:07;;;;;;;15.45;4.10;;;11.70;99.90;;;;;;5068343;28;20048;-54
2022/10/31 08:29:34;;;;;;;13.30;4.50;;;11.80;99.90;;;;;;5065734;28;20048;-54
2022/10/31 08:32:00;;;;;;;12.98;4.15;;;11.90;99.90;;;;;;5072851;28;20055;-52
2022/10/31 08:34:46;;;;;;;10.35;4.53;;;11.90;99.90;;;;;;5091782;28;20404;-52
2022/10/31 08:37:31;;;;;;;16.77;4.18;;;12.00;99.90;;;;;;5066663;28;20132;-51
2022/10/31 08:39:58;;;;;;;11.30;4.43;;;12.10;99.90;;;;;;5073792;28;20032;-51
2022/10/31 08:42:25;;;;;;;13.18;4.63;;;12.20;99.90;;;;;;5073375;28;20039;-53
2022/10/31 08:44:52;;;;;;;12.40;4.22;;;12.40;99.90;;;;;;5065494;28;20080;-52
2022/10/31 08:47:21;;;;;;;18.45;3.80;;;12.60;99.90;;;;;;5034049;28;20067;-52
2022/10/31 08:49:47;;;;;;;13.95;4.10;;;12.80;99.90;;;;;;5032781;28;20052;-54
2022/10/31 08:52:15;;;;;;;9.75;4.10;;;13.00;99.90;;;;;;5035427;28;20037;-53
2022/10/31 08:54:45;;;;;;;8.43;3.50;;;13.00;99.90;;;;;;5048122;28;20057;-54
2022/10/31 08:57:47;;;;;;;14.73;3.88;;;13.10;99.90;;;;;;5051659;28;20156;-51
2022/10/31 09:00:14;;;;;;;14.55;4.30;;;13.30;99.90;;;;;;5033527;28;20059;-54
2022/10/31 09:03:00;;;;;;;10.23;3.55;;;13.30;99.90;;;;;;5062756;28;20097;-52
2022/10/31 09:05:30;;;;;;;15.30;4.00;;;13.30;99.90;;;;;;5062357;28;20040;-54
2022/10/31 09:07:58;;;;;;;11.65;3.20;;;13.30;99.90;;;;;;5041023;28;20788;-53
2022/10/31 09:10:28;;;;;;;15.18;4.30;;;13.40;99.90;;;;;;5072785;28;20054;-50
2022/10/31 09:12:59;;;;;;;9.68;3.50;;;13.50;99.90;;;;;;5055909;28;20130;-52
2022/10/31 09:15:27;;;;;;;15.13;3.70;;;13.70;99.90;;;;;;5091346;28;20109;-50
2022/10/31 09:18:20;;;;;;;12.00;3.65;;;13.80;99.90;;;;;;5081726;28;20055;-50
2022/10/31 09:21:00;;;;;;;14.40;3.92;;;13.80;99.90;;;;;;5073255;28;20058;-50
2022/10/31 09:23:29;;;;;;;11.15;3.78;;;13.90;99.90;;;;;;5061506;28;20040;-52
2022/10/31 09:26:00;;;;;;;9.15;3.22;;;13.90;99.90;;;;;;5068530;28;20040;-50
2022/10/31 09:28:31;;;;;;;17.77;3.63;;;14.10;99.90;;;;;;5090125;28;20043;-51
2022/10/31 09:31:04;;;;;;;12.73;3.92;;;14.20;99.90;;;;;;5073700;28;20048;-50
2022/10/31 09:33:54;;;;;;;10.27;3.33;;;14.20;99.90;;;;;;5056375;28;20588;-49
2022/10/31 09:36:45;;;;;;;12.73;3.60;;;14.30;99.90;;;;;;5053335;28;20056;-50
2022/10/31 09:39:17;;;;;;;13.80;3.90;;;14.50;99.90;;;;;;5073148;28;20500;-50
2022/10/31 09:42:15;;;;;;;9.23;3.03;;;14.60;99.90;;;;;;5051502;22;20045;-49
2022/10/31 09:44:55;;;;;;;8.95;3.42;;;14.70;99.90;;;;;;5049084;28;20119;-50
2022/10/31 09:47:42;;;;;;;10.23;3.50;;;14.70;99.90;;;;;;5049940;28;20127;-50
2022/10/31 09:50:47;;;;;;;14.73;3.38;;;14.80;99.90;;;;;;5055955;28;20049;-51
2022/10/31 09:53:51;;;;;;;10.73;2.85;;;14.90;99.90;;;;;;5042255;28;20040;-51
2022/10/31 09:56:24;;;;;;;9.85;2.97;;;15.10;99.90;;;;;;5038713;28;20069;-49
2022/10/31 09:58:59;;;;;;;12.10;3.47;;;15.30;99.90;;;;;;5068430;28;20047;-50
2022/10/31 10:01:38;;;;;;;9.70;3.28;;;15.40;99.90;;;;;;5042756;28;20053;-51
2022/10/31 10:04:33;;;;;;;8.70;3.28;;;15.40;99.90;;;;;;5043373;28;20043;-49
2022/10/31 10:07:21;;;;;;;10.93;2.85;;;15.50;99.90;;;;;;5067898;28;20040;-50
2022/10/31 10:10:25;;;;;;;18.48;3.17;;;15.60;99.90;;;;;;5063691;28;20396;-50
2022/10/31 10:13:22;;;;;;;13.32;3.00;;;15.80;99.90;;;;;;5060833;28;20249;-53
2022/10/31 10:16:33;;;;;;;15.23;3.15;;;15.90;99.90;;;;;;5050145;28;20072;-53
2022/10/31 10:19:23;;;;;;;10.48;3.60;;;16.00;99.90;;;;;;5038117;28;20051;-50
2022/10/31 10:22:11;;;;;;;15.27;3.20;;;16.00;99.90;;;;;;5057623;28;20276;-51
2022/10/31 10:24:55;;;;;;;14.45;3.72;;;16.10;99.90;;;;;;5061424;28;20082;-49
2022/10/31 10:28:12;;;;;;;6.50;3.20;;;16.20;99.90;;;;;;5066251;28;20461;-51
2022/10/31 10:30:44;;;;;;;10.57;3.45;;;16.30;99.90;;;;;;5039269;28;20107;-51
2022/10/31 10:33:15;;;;;;;11.65;3.35;;;16.30;99.90;;;;;;5064409;28;20080;-51
2022/10/31 10:35:53;;;;;;;14.00;2.75;;;16.50;99.90;;;;;;5067720;28;20076;-51
2022/10/31 10:38:40;;;;;;;9.70;3.20;;;16.50;99.90;;;;;;5064036;28;20106;-49
2022/10/31 10:41:16;;;;;;;12.13;2.60;;;16.60;99.90;;;;;;5065182;28;20036;-50
2022/10/31 10:43:43;;;;;;;12.70;3.35;;;16.70;99.90;;;;;;5065237;28;20036;-50
2022/10/31 10:49:28;;;;;;;11.40;3.40;;;16.80;99.90;;;;;;5063498;28;20049;-49
2022/10/31 10:52:20;;;;;;;8.18;3.03;;;16.90;99.90;;;;;;5063733;28;20053;-50
2022/10/31 10:55:18;;;;;;;12.93;3.28;;;16.90;99.90;;;;;;5061214;28;20048;-49
2022/10/31 10:57:49;;;;;;;7.80;3.05;;;16.80;99.90;;;;;;5060015;28;20066;-50
2022/10/31 11:00:20;;;;;;;9.43;3.13;;;16.70;99.90;;;;;;5073757;28;20036;-51
2022/10/31 11:02:47;;;;;;;10.85;3.00;;;16.70;99.90;;;;;;5074252;28;20049;-49
2022/10/31 11:05:20;;;;;;;15.80;3.58;;;16.80;99.90;;;;;;5070652;28;20120;-50
2022/10/31 11:07:47;;;;;;;8.80;2.72;;;17.00;99.90;;;;;;5071770;28;20037;-49
2022/10/31 11:10:15;;;;;;;10.52;2.95;;;17.00;99.90;;;;;;5088169;28;20484;-48
2022/10/31 11:13:02;;;;;;;11.85;3.10;;;17.10;99.90;;;;;;5068841;28;20066;-48
2022/10/31 11:15:33;;;;;;;18.88;5.25;;;17.10;99.90;;;;;;5064514;28;20098;-50
2022/10/31 11:18:01;;;;;;;11.23;2.92;;;17.30;99.90;;;;;;5066171;28;20045;-48
2022/10/31 11:20:35;;;;;;;11.68;3.70;;;17.30;99.90;;;;;;5067914;28;20063;-54
2022/10/31 11:23:17;;;;;;;8.32;2.83;;;17.50;99.90;;;;;;5072655;28;20082;-51
2022/10/31 11:25:59;;;;;;;11.60;2.95;;;17.50;99.90;;;;;;5073132;28;20068;-49
2022/10/31 11:28:32;;;;;;;15.68;3.90;;;17.60;99.90;;;;;;5064718;28;20093;-48
2022/10/31 11:31:00;;;;;;;8.50;3.15;;;17.70;99.90;;;;;;5072772;28;20032;-48
2022/10/31 11:33:37;;;;;;;9.38;3.45;;;17.70;99.90;;;;;;5072131;28;20053;-51
2022/10/31 11:36:50;;;;;;;9.60;3.50;;;17.60;99.90;;;;;;5073589;28;20500;-49
2022/10/31 11:39:21;;;;;;;10.48;3.10;;;17.70;99.90;;;;;;5053890;28;20444;-49
2022/10/31 11:41:49;;;;;;;9.15;3.17;;;17.80;99.90;;;;;;5080246;28;20087;-49
2022/10/31 11:44:20;;;;;;;9.88;2.78;;;17.80;99.90;;;;;;5075201;28;20475;-49
2022/10/31 11:46:49;;;;;;;7.20;3.00;;;17.80;99.90;;;;;;5071791;28;20036;-49
2022/10/31 11:49:29;;;;;;;8.90;2.75;;;17.80;99.90;;;;;;5065927;28;20099;-48
2022/10/31 11:51:58;;;;;;;4.93;2.58;;;17.90;99.90;;;;;;5087954;28;20465;-48
2022/10/31 11:54:28;;;;;;;15.73;3.22;;;17.90;99.90;;;;;;5068183;28;20045;-48
2022/10/31 11:56:56;;;;;;;10.18;3.10;;;17.80;99.90;;;;;;5075916;28;20036;-49
2022/10/31 11:59:22;;;;;;;;;;;17.80;99.90;;;;;;5091372;28;20035;-49
2022/10/31 12:01:51;;;;;;;8.35;2.83;;;17.70;99.90;;;;;;5084401;28;19943;-56
2022/10/31 12:04:22;;;;;;;10.30;3.35;;;17.80;99.90;;;;;;5071977;28;20411;-54
2022/10/31 12:06:51;;;;;;;8.52;2.72;;;17.80;99.90;;;;;;5081005;28;20090;-54
2022/10/31 12:09:22;;;;;;;12.10;4.72;;;17.90;99.90;;;;;;5093135;28;20473;-52
2022/10/31 12:12:00;;;;;;;8.95;2.42;;;17.90;99.90;;;;;;5082564;28;20464;-49
2022/10/31 12:14:35;;;;;;;9.85;2.78;;;17.90;99.90;;;;;;5067716;28;20095;-53
2022/10/31 12:17:17;;;;;;;10.82;2.60;;;18.00;99.90;;;;;;5085199;28;20116;-47
2022/10/31 12:20:06;;;;;;;7.45;2.75;;;18.00;99.90;;;;;;5091927;28;20040;-48
2022/10/31 12:22:36;;;;;;;;;;;18.10;99.90;;;;;;5071253;28;20499;-48
2022/10/31 12:25:26;;;;;;;5.70;1.92;;;18.00;99.90;;;;;;5091421;28;19967;-49
2022/10/31 12:28:03;;;;;;;7.85;2.58;;;17.90;99.90;;;;;;5053223;28;20082;-48
2022/10/31 12:30:49;;;;;;;12.55;2.90;;;17.90;99.90;;;;;;5061352;28;20082;-49
2022/10/31 12:33:40;;;;;;;10.05;2.83;;;17.90;99.90;;;;;;5070751;28;20037;-49
2022/10/31 12:36:49;;;;;;;10.80;3.00;;;17.90;99.90;;;;;;5062000;28;20461;-48
2022/10/31 12:39:29;;;;;;;10.13;2.25;;;17.90;99.90;;;;;;5071550;28;20311;-49
2022/10/31 12:42:36;;;;;;;11.43;2.90;;;17.80;99.90;;;;;;5071034;28;20056;-49
2022/10/31 12:45:33;;;;;;;6.00;2.17;;;17.80;99.90;;;;;;5055979;28;20493;-53
2022/10/31 12:48:00;;;;;;;10.32;3.25;;;17.70;99.90;;;;;;5070738;28;20059;-49
2022/10/31 12:50:43;;;;;;;17.45;3.55;;;17.70;99.90;;;;;;5066741;28;20048;-50
2022/10/31 12:53:49;;;;;;;11.45;3.45;;;17.60;99.90;;;;;;5071474;28;20066;-51
2022/10/31 12:56:38;;;;;;;9.00;3.35;;;17.60;99.90;;;;;;5071045;28;20090;-48
2022/10/31 12:59:37;;;;;;;10.15;2.92;;;17.60;99.90;;;;;;5071065;28;20028;-49
2022/10/31 13:02:19;;;;;;;11.75;2.75;;;17.60;99.90;;;;;;5075468;28;20044;-49
2022/10/31 13:05:04;;;;;;;9.38;2.50;;;17.60;99.90;;;;;;5067832;28;20037;-50
2022/10/31 13:07:43;;;;;;;7.90;2.65;;;17.50;99.90;;;;;;5068857;28;20535;-49
2022/10/31 13:10:28;;;;;;;8.30;2.65;;;17.50;99.90;;;;;;5078784;28;20443;-49
2022/10/31 13:13:01;;;;;;;7.80;2.85;;;17.50;99.90;;;;;;5091165;28;20457;-52
2022/10/31 13:15:33;;;;;;;8.75;2.97;;;17.50;99.90;;;;;;5071184;28;20509;-50
2022/10/31 13:18:05;;;;;;;11.27;2.38;;;17.50;99.90;;;;;;5069907;28;20063;-47
2022/10/31 13:20:41;;;;;;;13.88;3.13;;;17.50;99.90;;;;;;5063043;28;20268;-49
2022/10/31 13:23:24;;;;;;;8.75;2.97;;;17.50;99.90;;;;;;5069988;28;20044;-49
2022/10/31 13:26:22;;;;;;;13.98;3.50;;;17.60;99.90;;;;;;5085257;28;20130;-48
2022/10/31 13:29:03;;;;;;;7.00;2.15;;;17.60;99.90;;;;;;5054758;28;20110;-49
2022/10/31 13:31:29;;;;;;;9.82;3.28;;;17.70;99.90;;;;;;5050868;28;20045;-49
2022/10/31 13:34:03;;;;;;;8.20;2.45;;;17.90;99.90;;;;;;5058998;28;20444;-48